sensor_id;sensor_type;location;lat;lon;timestamp;P1;durP1;ratioP1;P2;durP2;ratioP2
75655;SDS011;64252;51.094;13.714;2022-12-18T00:02:16;39.70;;;15.13;;
75655;SDS011;64252;51.094;13.714;2022-12-18T00:04:41;39.00;;;15.27;;
75655;SDS011;64252;51.094;13.714;2022-12-18T00:07:07;41.53;;;15.23;;
75655;SDS011;64252;51.094;13.714;2022-12-18T00:09:32;41.53;;;13.60;;
75655;SDS011;64252;51.094;13.714;2022-12-18T00:11:58;49.65;;;16.48;;
75655;SDS011;64252;51.094;13.714;2022-12-18T00:14:23;36.08;;;14.43;;
75655;SDS011;64252;51.094;13.714;2022-12-18T00:16:49;41.78;;;14.98;;
75655;SDS011;64252;51.094;13.714;2022-12-18T00:19:14;42.13;;;16.42;;
75655;SDS011;64252;51.094;13.714;2022-12-18T00:21:40;42.88;;;15.50;;
75655;SDS011;64252;51.094;13.714;2022-12-18T00:24:08;39.40;;;16.27;;
75655;SDS011;64252;51.094;13.714;2022-12-18T00:26:35;40.88;;;14.57;;
75655;SDS011;64252;51.094;13.714;2022-12-18T00:29:06;52.03;;;15.70;;
75655;SDS011;64252;51.094;13.714;2022-12-18T00:31:35;43.17;;;14.18;;
75655;SDS011;64252;51.094;13.714;2022-12-18T00:34:02;38.22;;;15.40;;
75655;SDS011;64252;51.094;13.714;2022-12-18T00:36:29;36.15;;;15.27;;
75655;SDS011;64252;51.094;13.714;2022-12-18T00:38:57;42.30;;;15.45;;
75655;SDS011;64252;51.094;13.714;2022-12-18T00:41:23;37.78;;;13.43;;
75655;SDS011;64252;51.094;13.714;2022-12-18T00:44:09;26.73;;;10.57;;
75655;SDS011;64252;51.094;13.714;2022-12-18T00:46:37;29.23;;;12.20;;
75655;SDS011;64252;51.094;13.714;2022-12-18T00:49:03;36.22;;;12.98;;
75655;SDS011;64252;51.094;13.714;2022-12-18T00:51:29;38.63;;;14.30;;
75655;SDS011;64252;51.094;13.714;2022-12-18T00:53:54;44.22;;;15.57;;
75655;SDS011;64252;51.094;13.714;2022-12-18T00:56:20;39.80;;;15.82;;
75655;SDS011;64252;51.094;13.714;2022-12-18T00:58:45;38.20;;;14.65;;
75655;SDS011;64252;51.094;13.714;2022-12-18T01:01:11;36.85;;;15.20;;
75655;SDS011;64252;51.094;13.714;2022-12-18T01:03:36;45.13;;;17.73;;
75655;SDS011;64252;51.094;13.714;2022-12-18T01:06:06;51.22;;;17.27;;
75655;SDS011;64252;51.094;13.714;2022-12-18T01:08:32;41.92;;;15.52;;
75655;SDS011;64252;51.094;13.714;2022-12-18T01:10:58;43.13;;;16.90;;
75655;SDS011;64252;51.094;13.714;2022-12-18T01:13:24;43.75;;;17.13;;
75655;SDS011;64252;51.094;13.714;2022-12-18T01:15:55;35.97;;;15.57;;
75655;SDS011;64252;51.094;13.714;2022-12-18T01:18:21;47.60;;;16.95;;
75655;SDS011;64252;51.094;13.714;2022-12-18T01:20:46;43.10;;;16.50;;
75655;SDS011;64252;51.094;13.714;2022-12-18T01:23:12;41.70;;;16.15;;
75655;SDS011;64252;51.094;13.714;2022-12-18T01:25:37;44.97;;;17.98;;
75655;SDS011;64252;51.094;13.714;2022-12-18T01:28:03;39.28;;;12.85;;
75655;SDS011;64252;51.094;13.714;2022-12-18T01:30:31;31.00;;;11.50;;
75655;SDS011;64252;51.094;13.714;2022-12-18T01:32:56;43.30;;;17.23;;
75655;SDS011;64252;51.094;13.714;2022-12-18T01:35:22;37.22;;;15.32;;
75655;SDS011;64252;51.094;13.714;2022-12-18T01:37:48;44.33;;;15.93;;
75655;SDS011;64252;51.094;13.714;2022-12-18T01:40:13;44.67;;;17.40;;
75655;SDS011;64252;51.094;13.714;2022-12-18T01:42:39;41.17;;;16.23;;
75655;SDS011;64252;51.094;13.714;2022-12-18T01:45:05;43.03;;;16.38;;
75655;SDS011;64252;51.094;13.714;2022-12-18T01:50:02;41.92;;;17.20;;
75655;SDS011;64252;51.094;13.714;2022-12-18T01:52:31;42.55;;;17.00;;
75655;SDS011;64252;51.094;13.714;2022-12-18T01:54:58;47.83;;;17.10;;
75655;SDS011;64252;51.094;13.714;2022-12-18T01:57:25;48.90;;;17.38;;
75655;SDS011;64252;51.094;13.714;2022-12-18T01:59:52;46.15;;;16.23;;
75655;SDS011;64252;51.094;13.714;2022-12-18T02:02:22;39.70;;;15.00;;
75655;SDS011;64252;51.094;13.714;2022-12-18T02:04:47;47.08;;;16.92;;
75655;SDS011;64252;51.094;13.714;2022-12-18T02:09:54;43.40;;;16.20;;
75655;SDS011;64252;51.094;13.714;2022-12-18T02:12:27;41.22;;;14.38;;
75655;SDS011;64252;51.094;13.714;2022-12-18T02:15:16;41.63;;;15.70;;
75655;SDS011;64252;51.094;13.714;2022-12-18T02:17:45;48.72;;;16.77;;
75655;SDS011;64252;51.094;13.714;2022-12-18T02:20:19;40.08;;;15.25;;
75655;SDS011;64252;51.094;13.714;2022-12-18T02:25:42;38.33;;;15.13;;
75655;SDS011;64252;51.094;13.714;2022-12-18T02:28:28;45.17;;;15.45;;
75655;SDS011;64252;51.094;13.714;2022-12-18T02:31:04;38.63;;;13.65;;
75655;SDS011;64252;51.094;13.714;2022-12-18T02:33:33;40.45;;;15.23;;
75655;SDS011;64252;51.094;13.714;2022-12-18T02:36:00;39.38;;;14.70;;
75655;SDS011;64252;51.094;13.714;2022-12-18T02:38:29;39.50;;;14.45;;
75655;SDS011;64252;51.094;13.714;2022-12-18T02:41:03;37.58;;;14.32;;
75655;SDS011;64252;51.094;13.714;2022-12-18T02:43:30;41.33;;;14.75;;
75655;SDS011;64252;51.094;13.714;2022-12-18T02:45:58;34.90;;;13.38;;
75655;SDS011;64252;51.094;13.714;2022-12-18T02:48:33;40.55;;;13.98;;
75655;SDS011;64252;51.094;13.714;2022-12-18T02:51:24;41.50;;;14.18;;
75655;SDS011;64252;51.094;13.714;2022-12-18T02:54:06;36.90;;;14.25;;
75655;SDS011;64252;51.094;13.714;2022-12-18T02:56:38;32.67;;;11.93;;
75655;SDS011;64252;51.094;13.714;2022-12-18T02:59:19;38.13;;;12.98;;
75655;SDS011;64252;51.094;13.714;2022-12-18T03:01:58;36.35;;;12.55;;
75655;SDS011;64252;51.094;13.714;2022-12-18T03:04:57;24.80;;;11.68;;
75655;SDS011;64252;51.094;13.714;2022-12-18T03:10:29;30.58;;;10.60;;
75655;SDS011;64252;51.094;13.714;2022-12-18T03:13:10;26.48;;;10.63;;
75655;SDS011;64252;51.094;13.714;2022-12-18T03:15:44;34.72;;;11.93;;
75655;SDS011;64252;51.094;13.714;2022-12-18T03:18:21;27.98;;;11.05;;
75655;SDS011;64252;51.094;13.714;2022-12-18T03:20:52;26.98;;;10.68;;
75655;SDS011;64252;51.094;13.714;2022-12-18T03:23:22;26.55;;;10.55;;
75655;SDS011;64252;51.094;13.714;2022-12-18T03:25:54;23.40;;;9.95;;
75655;SDS011;64252;51.094;13.714;2022-12-18T03:28:25;30.85;;;12.73;;
75655;SDS011;64252;51.094;13.714;2022-12-18T03:30:59;25.10;;;10.05;;
75655;SDS011;64252;51.094;13.714;2022-12-18T03:33:30;27.45;;;10.85;;
75655;SDS011;64252;51.094;13.714;2022-12-18T03:36:01;30.10;;;11.75;;
75655;SDS011;64252;51.094;13.714;2022-12-18T03:38:27;26.25;;;9.57;;
75655;SDS011;64252;51.094;13.714;2022-12-18T03:40:59;25.42;;;10.48;;
75655;SDS011;64252;51.094;13.714;2022-12-18T03:46:23;28.13;;;10.15;;
75655;SDS011;64252;51.094;13.714;2022-12-18T03:48:56;31.40;;;11.40;;
75655;SDS011;64252;51.094;13.714;2022-12-18T03:51:37;27.73;;;10.00;;
75655;SDS011;64252;51.094;13.714;2022-12-18T03:54:11;25.42;;;8.88;;
75655;SDS011;64252;51.094;13.714;2022-12-18T03:56:44;24.25;;;9.57;;
75655;SDS011;64252;51.094;13.714;2022-12-18T03:59:13;24.88;;;8.98;;
75655;SDS011;64252;51.094;13.714;2022-12-18T04:01:44;21.30;;;7.20;;
75655;SDS011;64252;51.094;13.714;2022-12-18T04:04:14;27.95;;;9.65;;
75655;SDS011;64252;51.094;13.714;2022-12-18T04:06:42;24.83;;;8.30;;
75655;SDS011;64252;51.094;13.714;2022-12-18T04:09:11;24.30;;;9.85;;
75655;SDS011;64252;51.094;13.714;2022-12-18T04:11:41;26.23;;;8.52;;
75655;SDS011;64252;51.094;13.714;2022-12-18T04:14:10;19.35;;;7.80;;
75655;SDS011;64252;51.094;13.714;2022-12-18T04:16:36;23.77;;;8.63;;
75655;SDS011;64252;51.094;13.714;2022-12-18T04:19:09;19.60;;;8.18;;
75655;SDS011;64252;51.094;13.714;2022-12-18T04:21:39;20.65;;;8.73;;
75655;SDS011;64252;51.094;13.714;2022-12-18T04:24:05;22.98;;;9.15;;
75655;SDS011;64252;51.094;13.714;2022-12-18T04:26:33;22.58;;;8.57;;
75655;SDS011;64252;51.094;13.714;2022-12-18T04:29:09;23.35;;;9.27;;
75655;SDS011;64252;51.094;13.714;2022-12-18T04:31:35;20.52;;;7.95;;
75655;SDS011;64252;51.094;13.714;2022-12-18T04:34:01;24.25;;;8.60;;
75655;SDS011;64252;51.094;13.714;2022-12-18T04:36:27;20.70;;;7.60;;
75655;SDS011;64252;51.094;13.714;2022-12-18T04:38:54;22.83;;;8.98;;
75655;SDS011;64252;51.094;13.714;2022-12-18T04:41:20;26.90;;;8.65;;
75655;SDS011;64252;51.094;13.714;2022-12-18T04:43:48;20.30;;;7.95;;
75655;SDS011;64252;51.094;13.714;2022-12-18T04:46:13;22.58;;;8.57;;
75655;SDS011;64252;51.094;13.714;2022-12-18T04:48:39;22.05;;;7.82;;
75655;SDS011;64252;51.094;13.714;2022-12-18T04:51:06;23.65;;;7.63;;
75655;SDS011;64252;51.094;13.714;2022-12-18T04:53:31;20.70;;;8.82;;
75655;SDS011;64252;51.094;13.714;2022-12-18T04:56:11;23.05;;;8.13;;
75655;SDS011;64252;51.094;13.714;2022-12-18T04:58:39;24.73;;;9.18;;
75655;SDS011;64252;51.094;13.714;2022-12-18T05:01:05;20.92;;;8.10;;
75655;SDS011;64252;51.094;13.714;2022-12-18T05:03:33;24.67;;;8.75;;
75655;SDS011;64252;51.094;13.714;2022-12-18T05:05:59;24.23;;;8.93;;
75655;SDS011;64252;51.094;13.714;2022-12-18T05:08:24;29.38;;;9.30;;
75655;SDS011;64252;51.094;13.714;2022-12-18T05:10:57;28.20;;;8.45;;
75655;SDS011;64252;51.094;13.714;2022-12-18T05:13:31;21.77;;;8.30;;
75655;SDS011;64252;51.094;13.714;2022-12-18T05:15:57;22.30;;;8.10;;
75655;SDS011;64252;51.094;13.714;2022-12-18T05:18:23;21.80;;;8.80;;
75655;SDS011;64252;51.094;13.714;2022-12-18T05:20:49;19.48;;;7.82;;
75655;SDS011;64252;51.094;13.714;2022-12-18T05:23:15;21.52;;;6.80;;
75655;SDS011;64252;51.094;13.714;2022-12-18T05:25:41;19.85;;;7.50;;
75655;SDS011;64252;51.094;13.714;2022-12-18T05:28:06;24.83;;;7.88;;
75655;SDS011;64252;51.094;13.714;2022-12-18T05:30:32;20.92;;;7.85;;
75655;SDS011;64252;51.094;13.714;2022-12-18T05:32:57;28.58;;;8.75;;
75655;SDS011;64252;51.094;13.714;2022-12-18T05:35:23;20.42;;;7.68;;
75655;SDS011;64252;51.094;13.714;2022-12-18T05:37:48;24.50;;;8.82;;
75655;SDS011;64252;51.094;13.714;2022-12-18T05:40:14;22.45;;;8.02;;
75655;SDS011;64252;51.094;13.714;2022-12-18T05:42:39;24.17;;;8.30;;
75655;SDS011;64252;51.094;13.714;2022-12-18T05:45:05;20.60;;;8.68;;
75655;SDS011;64252;51.094;13.714;2022-12-18T05:47:31;23.73;;;8.05;;
75655;SDS011;64252;51.094;13.714;2022-12-18T05:49:57;20.48;;;7.30;;
75655;SDS011;64252;51.094;13.714;2022-12-18T05:52:22;17.42;;;6.40;;
75655;SDS011;64252;51.094;13.714;2022-12-18T05:54:48;24.30;;;7.40;;
75655;SDS011;64252;51.094;13.714;2022-12-18T05:57:13;19.33;;;8.07;;
75655;SDS011;64252;51.094;13.714;2022-12-18T05:59:39;18.42;;;7.70;;
75655;SDS011;64252;51.094;13.714;2022-12-18T06:02:04;19.33;;;7.30;;
75655;SDS011;64252;51.094;13.714;2022-12-18T06:04:30;20.75;;;7.78;;
75655;SDS011;64252;51.094;13.714;2022-12-18T06:06:56;29.27;;;8.75;;
75655;SDS011;64252;51.094;13.714;2022-12-18T06:09:22;19.73;;;7.68;;
75655;SDS011;64252;51.094;13.714;2022-12-18T06:11:47;19.75;;;7.20;;
75655;SDS011;64252;51.094;13.714;2022-12-18T06:14:13;22.27;;;8.38;;
75655;SDS011;64252;51.094;13.714;2022-12-18T06:16:38;16.45;;;8.18;;
75655;SDS011;64252;51.094;13.714;2022-12-18T06:19:05;17.73;;;7.20;;
75655;SDS011;64252;51.094;13.714;2022-12-18T06:21:31;17.88;;;6.05;;
75655;SDS011;64252;51.094;13.714;2022-12-18T06:23:57;21.52;;;6.72;;
75655;SDS011;64252;51.094;13.714;2022-12-18T06:26:23;23.40;;;7.82;;
75655;SDS011;64252;51.094;13.714;2022-12-18T06:28:49;20.63;;;6.55;;
75655;SDS011;64252;51.094;13.714;2022-12-18T06:31:14;22.83;;;8.68;;
75655;SDS011;64252;51.094;13.714;2022-12-18T06:33:40;21.73;;;8.18;;
75655;SDS011;64252;51.094;13.714;2022-12-18T06:36:10;17.55;;;6.45;;
75655;SDS011;64252;51.094;13.714;2022-12-18T06:41:11;14.38;;;5.97;;
75655;SDS011;64252;51.094;13.714;2022-12-18T06:43:42;19.25;;;6.82;;
75655;SDS011;64252;51.094;13.714;2022-12-18T06:46:09;20.70;;;6.68;;
75655;SDS011;64252;51.094;13.714;2022-12-18T06:48:35;15.77;;;5.55;;
75655;SDS011;64252;51.094;13.714;2022-12-18T06:51:00;20.83;;;7.32;;
75655;SDS011;64252;51.094;13.714;2022-12-18T06:53:26;17.13;;;7.32;;
75655;SDS011;64252;51.094;13.714;2022-12-18T06:55:52;19.27;;;7.85;;
75655;SDS011;64252;51.094;13.714;2022-12-18T06:58:18;19.25;;;7.82;;
75655;SDS011;64252;51.094;13.714;2022-12-18T07:00:43;22.50;;;7.82;;
75655;SDS011;64252;51.094;13.714;2022-12-18T07:03:09;19.27;;;6.55;;
75655;SDS011;64252;51.094;13.714;2022-12-18T07:05:39;17.15;;;6.72;;
75655;SDS011;64252;51.094;13.714;2022-12-18T07:08:05;20.08;;;7.93;;
75655;SDS011;64252;51.094;13.714;2022-12-18T07:10:31;20.98;;;9.18;;
75655;SDS011;64252;51.094;13.714;2022-12-18T07:12:56;17.52;;;7.05;;
75655;SDS011;64252;51.094;13.714;2022-12-18T07:15:22;18.50;;;6.82;;
75655;SDS011;64252;51.094;13.714;2022-12-18T07:17:47;19.63;;;7.80;;
75655;SDS011;64252;51.094;13.714;2022-12-18T07:20:13;21.80;;;8.57;;
75655;SDS011;64252;51.094;13.714;2022-12-18T07:22:38;21.27;;;7.35;;
75655;SDS011;64252;51.094;13.714;2022-12-18T07:25:04;26.13;;;8.50;;
75655;SDS011;64252;51.094;13.714;2022-12-18T07:27:30;19.23;;;7.43;;
75655;SDS011;64252;51.094;13.714;2022-12-18T07:29:56;21.02;;;7.97;;
75655;SDS011;64252;51.094;13.714;2022-12-18T07:32:22;21.30;;;8.50;;
75655;SDS011;64252;51.094;13.714;2022-12-18T07:34:47;16.65;;;7.40;;
75655;SDS011;64252;51.094;13.714;2022-12-18T07:37:13;20.75;;;8.32;;
75655;SDS011;64252;51.094;13.714;2022-12-18T07:39:38;23.48;;;8.20;;
75655;SDS011;64252;51.094;13.714;2022-12-18T07:42:07;24.85;;;8.15;;
75655;SDS011;64252;51.094;13.714;2022-12-18T07:44:51;18.23;;;8.10;;
75655;SDS011;64252;51.094;13.714;2022-12-18T07:47:16;26.67;;;8.40;;
75655;SDS011;64252;51.094;13.714;2022-12-18T07:49:42;24.30;;;9.35;;
75655;SDS011;64252;51.094;13.714;2022-12-18T07:52:07;18.63;;;7.85;;
75655;SDS011;64252;51.094;13.714;2022-12-18T07:54:34;22.08;;;9.63;;
75655;SDS011;64252;51.094;13.714;2022-12-18T07:57:00;19.98;;;9.32;;
75655;SDS011;64252;51.094;13.714;2022-12-18T07:59:25;27.85;;;11.55;;
75655;SDS011;64252;51.094;13.714;2022-12-18T08:01:51;26.60;;;10.40;;
75655;SDS011;64252;51.094;13.714;2022-12-18T08:04:16;19.58;;;8.82;;
75655;SDS011;64252;51.094;13.714;2022-12-18T08:06:42;26.92;;;10.77;;
75655;SDS011;64252;51.094;13.714;2022-12-18T08:09:09;24.67;;;8.75;;
75655;SDS011;64252;51.094;13.714;2022-12-18T08:11:35;17.70;;;7.68;;
75655;SDS011;64252;51.094;13.714;2022-12-18T08:14:00;25.52;;;10.15;;
75655;SDS011;64252;51.094;13.714;2022-12-18T08:16:26;23.05;;;9.82;;
75655;SDS011;64252;51.094;13.714;2022-12-18T08:18:52;24.92;;;10.40;;
75655;SDS011;64252;51.094;13.714;2022-12-18T08:21:19;23.85;;;9.63;;
75655;SDS011;64252;51.094;13.714;2022-12-18T08:23:50;25.83;;;11.00;;
75655;SDS011;64252;51.094;13.714;2022-12-18T08:26:17;22.60;;;9.40;;
75655;SDS011;64252;51.094;13.714;2022-12-18T08:28:43;27.90;;;8.88;;
75655;SDS011;64252;51.094;13.714;2022-12-18T08:31:09;19.60;;;8.77;;
75655;SDS011;64252;51.094;13.714;2022-12-18T08:33:35;19.77;;;9.05;;
75655;SDS011;64252;51.094;13.714;2022-12-18T08:36:03;25.38;;;9.85;;
75655;SDS011;64252;51.094;13.714;2022-12-18T08:38:29;24.45;;;9.57;;
75655;SDS011;64252;51.094;13.714;2022-12-18T08:43:31;22.45;;;9.57;;
75655;SDS011;64252;51.094;13.714;2022-12-18T08:46:15;25.05;;;10.10;;
75655;SDS011;64252;51.094;13.714;2022-12-18T08:48:41;23.13;;;9.55;;
75655;SDS011;64252;51.094;13.714;2022-12-18T08:51:07;22.33;;;9.40;;
75655;SDS011;64252;51.094;13.714;2022-12-18T08:53:35;26.45;;;9.68;;
75655;SDS011;64252;51.094;13.714;2022-12-18T08:56:01;27.40;;;10.63;;
75655;SDS011;64252;51.094;13.714;2022-12-18T08:58:27;22.58;;;9.18;;
75655;SDS011;64252;51.094;13.714;2022-12-18T09:00:52;24.02;;;9.52;;
75655;SDS011;64252;51.094;13.714;2022-12-18T09:03:18;27.42;;;10.75;;
75655;SDS011;64252;51.094;13.714;2022-12-18T09:05:48;26.83;;;11.25;;
75655;SDS011;64252;51.094;13.714;2022-12-18T09:08:13;29.25;;;10.82;;
75655;SDS011;64252;51.094;13.714;2022-12-18T09:10:46;27.00;;;10.45;;
75655;SDS011;64252;51.094;13.714;2022-12-18T09:13:13;23.73;;;10.80;;
75655;SDS011;64252;51.094;13.714;2022-12-18T09:15:47;27.88;;;11.18;;
75655;SDS011;64252;51.094;13.714;2022-12-18T09:18:15;27.88;;;12.15;;
75655;SDS011;64252;51.094;13.714;2022-12-18T09:20:41;30.83;;;11.50;;
75655;SDS011;64252;51.094;13.714;2022-12-18T09:23:07;29.45;;;11.85;;
75655;SDS011;64252;51.094;13.714;2022-12-18T09:25:34;32.90;;;12.65;;
75655;SDS011;64252;51.094;13.714;2022-12-18T09:28:11;30.70;;;12.05;;
75655;SDS011;64252;51.094;13.714;2022-12-18T09:30:40;27.13;;;10.13;;
75655;SDS011;64252;51.094;13.714;2022-12-18T09:33:07;30.63;;;12.07;;
75655;SDS011;64252;51.094;13.714;2022-12-18T09:35:35;27.60;;;12.10;;
75655;SDS011;64252;51.094;13.714;2022-12-18T09:38:06;28.05;;;11.48;;
75655;SDS011;64252;51.094;13.714;2022-12-18T09:40:40;33.83;;;13.10;;
75655;SDS011;64252;51.094;13.714;2022-12-18T09:43:09;30.67;;;12.20;;
75655;SDS011;64252;51.094;13.714;2022-12-18T09:45:42;31.42;;;12.65;;
75655;SDS011;64252;51.094;13.714;2022-12-18T09:48:34;32.10;;;11.48;;
75655;SDS011;64252;51.094;13.714;2022-12-18T09:51:08;30.73;;;12.63;;
75655;SDS011;64252;51.094;13.714;2022-12-18T09:53:38;30.73;;;11.50;;
75655;SDS011;64252;51.094;13.714;2022-12-18T09:56:12;27.48;;;11.65;;
75655;SDS011;64252;51.094;13.714;2022-12-18T09:58:45;32.50;;;13.13;;
75655;SDS011;64252;51.094;13.714;2022-12-18T10:01:18;29.50;;;12.05;;
75655;SDS011;64252;51.094;13.714;2022-12-18T10:03:47;39.70;;;15.57;;
75655;SDS011;64252;51.094;13.714;2022-12-18T10:06:15;32.08;;;13.77;;
75655;SDS011;64252;51.094;13.714;2022-12-18T10:20:08;35.25;;;12.95;;
75655;SDS011;64252;51.094;13.714;2022-12-18T10:25:34;32.65;;;12.65;;
75655;SDS011;64252;51.094;13.714;2022-12-18T10:28:14;38.38;;;13.55;;
75655;SDS011;64252;51.094;13.714;2022-12-18T10:30:42;29.33;;;10.02;;
75655;SDS011;64252;51.094;13.714;2022-12-18T10:33:15;30.13;;;11.35;;
75655;SDS011;64252;51.094;13.714;2022-12-18T10:35:44;30.55;;;11.07;;
75655;SDS011;64252;51.094;13.714;2022-12-18T10:40:58;27.80;;;11.20;;
75655;SDS011;64252;51.094;13.714;2022-12-18T10:43:27;32.42;;;12.48;;
75655;SDS011;64252;51.094;13.714;2022-12-18T10:51:46;30.02;;;12.60;;
75655;SDS011;64252;51.094;13.714;2022-12-18T10:54:17;31.08;;;12.30;;
75655;SDS011;64252;51.094;13.714;2022-12-18T10:56:46;30.48;;;11.93;;
75655;SDS011;64252;51.094;13.714;2022-12-18T10:59:13;25.83;;;9.30;;
75655;SDS011;64252;51.094;13.714;2022-12-18T11:01:54;31.88;;;12.27;;
75655;SDS011;64252;51.094;13.714;2022-12-18T11:04:22;26.67;;;10.80;;
75655;SDS011;64252;51.094;13.714;2022-12-18T11:06:54;24.75;;;10.38;;
75655;SDS011;64252;51.094;13.714;2022-12-18T11:09:23;33.13;;;12.27;;
75655;SDS011;64252;51.094;13.714;2022-12-18T11:11:52;33.92;;;10.60;;
75655;SDS011;64252;51.094;13.714;2022-12-18T11:16:48;27.35;;;10.93;;
75655;SDS011;64252;51.094;13.714;2022-12-18T11:21:53;30.55;;;11.07;;
75655;SDS011;64252;51.094;13.714;2022-12-18T11:24:20;30.52;;;11.27;;
75655;SDS011;64252;51.094;13.714;2022-12-18T11:26:57;33.72;;;11.15;;
75655;SDS011;64252;51.094;13.714;2022-12-18T11:29:26;31.63;;;12.70;;
75655;SDS011;64252;51.094;13.714;2022-12-18T11:32:18;31.75;;;11.10;;
75655;SDS011;64252;51.094;13.714;2022-12-18T11:34:55;25.00;;;10.23;;
75655;SDS011;64252;51.094;13.714;2022-12-18T11:37:31;25.30;;;9.27;;
75655;SDS011;64252;51.094;13.714;2022-12-18T11:39:59;31.33;;;12.50;;
75655;SDS011;64252;51.094;13.714;2022-12-18T11:45:24;32.50;;;11.82;;
75655;SDS011;64252;51.094;13.714;2022-12-18T11:47:57;29.20;;;10.63;;
75655;SDS011;64252;51.094;13.714;2022-12-18T11:53:01;28.27;;;9.98;;
75655;SDS011;64252;51.094;13.714;2022-12-18T11:55:33;27.30;;;10.88;;
75655;SDS011;64252;51.094;13.714;2022-12-18T12:01:13;24.20;;;9.02;;
75655;SDS011;64252;51.094;13.714;2022-12-18T12:06:44;31.88;;;12.32;;
75655;SDS011;64252;51.094;13.714;2022-12-18T12:09:16;31.92;;;11.65;;
75655;SDS011;64252;51.094;13.714;2022-12-18T12:17:36;30.80;;;11.45;;
75655;SDS011;64252;51.094;13.714;2022-12-18T12:20:17;25.98;;;10.45;;
75655;SDS011;64252;51.094;13.714;2022-12-18T12:25:46;29.67;;;9.98;;
75655;SDS011;64252;51.094;13.714;2022-12-18T12:31:32;24.67;;;10.35;;
75655;SDS011;64252;51.094;13.714;2022-12-18T12:34:55;23.40;;;9.55;;
75655;SDS011;64252;51.094;13.714;2022-12-18T12:38:08;31.40;;;11.10;;
75655;SDS011;64252;51.094;13.714;2022-12-18T12:40:07;30.73;;;10.75;;
75655;SDS011;64252;51.094;13.714;2022-12-18T12:42:40;30.15;;;11.32;;
75655;SDS011;64252;51.094;13.714;2022-12-18T12:45:51;28.02;;;11.27;;
75655;SDS011;64252;51.094;13.714;2022-12-18T12:48:48;27.23;;;9.70;;
75655;SDS011;64252;51.094;13.714;2022-12-18T12:53:51;29.35;;;11.48;;
75655;SDS011;64252;51.094;13.714;2022-12-18T12:56:19;31.40;;;10.73;;
75655;SDS011;64252;51.094;13.714;2022-12-18T13:01:48;28.38;;;10.00;;
75655;SDS011;64252;51.094;13.714;2022-12-18T13:04:39;29.65;;;9.77;;
75655;SDS011;64252;51.094;13.714;2022-12-18T13:07:19;32.20;;;10.98;;
75655;SDS011;64252;51.094;13.714;2022-12-18T13:18:20;28.52;;;11.15;;
75655;SDS011;64252;51.094;13.714;2022-12-18T13:20:49;31.63;;;11.05;;
75655;SDS011;64252;51.094;13.714;2022-12-18T13:23:27;24.00;;;9.73;;
75655;SDS011;64252;51.094;13.714;2022-12-18T13:25:56;26.80;;;10.73;;
75655;SDS011;64252;51.094;13.714;2022-12-18T13:31:12;29.02;;;10.38;;
75655;SDS011;64252;51.094;13.714;2022-12-18T13:33:40;33.60;;;10.98;;
75655;SDS011;64252;51.094;13.714;2022-12-18T13:38:38;31.95;;;11.77;;
75655;SDS011;64252;51.094;13.714;2022-12-18T13:43:46;30.67;;;10.85;;
75655;SDS011;64252;51.094;13.714;2022-12-18T13:46:17;22.70;;;10.48;;
75655;SDS011;64252;51.094;13.714;2022-12-18T13:48:49;26.60;;;10.13;;
75655;SDS011;64252;51.094;13.714;2022-12-18T13:51:17;27.27;;;10.25;;
75655;SDS011;64252;51.094;13.714;2022-12-18T13:56:21;24.63;;;10.45;;
75655;SDS011;64252;51.094;13.714;2022-12-18T13:59:24;23.08;;;9.55;;
75655;SDS011;64252;51.094;13.714;2022-12-18T14:01:53;25.75;;;8.52;;
75655;SDS011;64252;51.094;13.714;2022-12-18T14:04:30;28.88;;;9.75;;
75655;SDS011;64252;51.094;13.714;2022-12-18T14:06:58;29.70;;;10.45;;
75655;SDS011;64252;51.094;13.714;2022-12-18T14:09:30;24.92;;;10.10;;
75655;SDS011;64252;51.094;13.714;2022-12-18T14:11:59;25.13;;;9.82;;
75655;SDS011;64252;51.094;13.714;2022-12-18T14:14:46;25.15;;;10.63;;
75655;SDS011;64252;51.094;13.714;2022-12-18T14:17:16;22.95;;;10.02;;
75655;SDS011;64252;51.094;13.714;2022-12-18T14:19:43;23.23;;;9.52;;
75655;SDS011;64252;51.094;13.714;2022-12-18T14:22:18;26.55;;;10.50;;
75655;SDS011;64252;51.094;13.714;2022-12-18T14:28:13;25.95;;;10.35;;
75655;SDS011;64252;51.094;13.714;2022-12-18T14:30:40;23.35;;;8.73;;
75655;SDS011;64252;51.094;13.714;2022-12-18T14:33:17;24.45;;;9.07;;
75655;SDS011;64252;51.094;13.714;2022-12-18T14:38:23;24.17;;;9.35;;
75655;SDS011;64252;51.094;13.714;2022-12-18T14:41:00;26.48;;;8.95;;
75655;SDS011;64252;51.094;13.714;2022-12-18T14:43:37;25.33;;;9.38;;
75655;SDS011;64252;51.094;13.714;2022-12-18T14:46:49;22.88;;;9.25;;
75655;SDS011;64252;51.094;13.714;2022-12-18T14:48:49;28.90;;;9.65;;
75655;SDS011;64252;51.094;13.714;2022-12-18T14:51:19;21.98;;;9.05;;
75655;SDS011;64252;51.094;13.714;2022-12-18T14:53:47;25.17;;;9.27;;
75655;SDS011;64252;51.094;13.714;2022-12-18T14:56:15;22.92;;;8.93;;
75655;SDS011;64252;51.094;13.714;2022-12-18T14:58:48;21.58;;;8.52;;
75655;SDS011;64252;51.094;13.714;2022-12-18T15:01:36;21.63;;;8.63;;
75655;SDS011;64252;51.094;13.714;2022-12-18T15:04:05;27.33;;;9.43;;
75655;SDS011;64252;51.094;13.714;2022-12-18T15:06:48;24.27;;;9.75;;
75655;SDS011;64252;51.094;13.714;2022-12-18T15:09:21;27.70;;;10.10;;
75655;SDS011;64252;51.094;13.714;2022-12-18T15:11:48;25.90;;;9.25;;
75655;SDS011;64252;51.094;13.714;2022-12-18T15:14:24;28.20;;;11.10;;
75655;SDS011;64252;51.094;13.714;2022-12-18T15:17:01;26.15;;;10.43;;
75655;SDS011;64252;51.094;13.714;2022-12-18T15:19:39;26.63;;;9.50;;
75655;SDS011;64252;51.094;13.714;2022-12-18T15:22:17;24.90;;;10.15;;
75655;SDS011;64252;51.094;13.714;2022-12-18T15:24:43;24.77;;;9.13;;
75655;SDS011;64252;51.094;13.714;2022-12-18T15:32:38;25.98;;;9.80;;
75655;SDS011;64252;51.094;13.714;2022-12-18T15:37:33;27.30;;;10.23;;
75655;SDS011;64252;51.094;13.714;2022-12-18T15:39:58;28.48;;;9.75;;
75655;SDS011;64252;51.094;13.714;2022-12-18T15:42:24;31.70;;;12.63;;
75655;SDS011;64252;51.094;13.714;2022-12-18T15:45:11;28.95;;;9.95;;
75655;SDS011;64252;51.094;13.714;2022-12-18T15:47:37;25.45;;;8.80;;
75655;SDS011;64252;51.094;13.714;2022-12-18T15:50:03;25.30;;;9.48;;
75655;SDS011;64252;51.094;13.714;2022-12-18T15:52:31;29.83;;;11.27;;
75655;SDS011;64252;51.094;13.714;2022-12-18T15:55:05;23.38;;;9.35;;
75655;SDS011;64252;51.094;13.714;2022-12-18T15:57:54;23.10;;;7.70;;
75655;SDS011;64252;51.094;13.714;2022-12-18T16:00:19;20.73;;;8.88;;
75655;SDS011;64252;51.094;13.714;2022-12-18T16:02:45;25.15;;;9.18;;
75655;SDS011;64252;51.094;13.714;2022-12-18T16:05:14;28.48;;;10.18;;
75655;SDS011;64252;51.094;13.714;2022-12-18T16:07:42;29.23;;;10.23;;
75655;SDS011;64252;51.094;13.714;2022-12-18T16:10:09;27.45;;;10.10;;
75655;SDS011;64252;51.094;13.714;2022-12-18T16:12:35;24.48;;;9.75;;
75655;SDS011;64252;51.094;13.714;2022-12-18T16:15:01;28.65;;;10.60;;
75655;SDS011;64252;51.094;13.714;2022-12-18T16:17:27;28.95;;;10.88;;
75655;SDS011;64252;51.094;13.714;2022-12-18T16:19:52;26.38;;;9.70;;